createdAt,value
2018-11-10T00:00:24.948Z,99.90
2018-11-10T00:05:27.517Z,99.90
2018-11-10T00:10:30.088Z,99.90
2018-11-10T00:15:32.677Z,99.90
2018-11-10T00:20:35.249Z,99.90
2018-11-10T00:25:37.844Z,99.90
2018-11-10T00:30:40.397Z,99.90
2018-11-10T00:35:42.947Z,99.90
2018-11-10T00:40:45.536Z,99.90
2018-11-10T00:45:48.118Z,99.90
2018-11-10T00:50:50.728Z,99.90
2018-11-10T00:55:53.316Z,99.90
2018-11-10T01:00:56.849Z,99.90
2018-11-10T01:05:59.578Z,99.90
2018-11-10T01:11:02.177Z,99.90
2018-11-10T01:16:05.217Z,99.90
2018-11-10T01:21:07.785Z,99.90
2018-11-10T01:26:10.359Z,99.90
2018-11-10T01:31:12.917Z,99.90
2018-11-10T01:36:15.459Z,99.90
2018-11-10T01:41:18.112Z,99.90
2018-11-10T01:46:20.689Z,99.90
2018-11-10T01:51:23.244Z,99.90
2018-11-10T01:56:25.794Z,99.90
2018-11-10T02:01:28.339Z,99.90
2018-11-10T02:06:30.938Z,99.90
2018-11-10T02:11:33.515Z,99.90
2018-11-10T02:16:36.075Z,99.90
2018-11-10T02:21:38.635Z,99.90
2018-11-10T02:31:43.726Z,99.90
2018-11-10T02:36:46.326Z,99.90
2018-11-10T02:41:48.868Z,99.90
2018-11-10T02:46:51.462Z,99.90
2018-11-10T02:51:54.116Z,99.90
2018-11-10T02:56:56.676Z,99.90
2018-11-10T03:01:59.228Z,99.90
2018-11-10T03:07:01.769Z,99.90
2018-11-10T03:12:04.739Z,99.90
2018-11-10T03:17:08.020Z,99.90
2018-11-10T03:22:10.553Z,99.90
2018-11-10T03:27:14.127Z,99.90
2018-11-10T03:32:16.679Z,99.90
2018-11-10T03:37:19.256Z,99.90
2018-11-10T03:42:21.812Z,99.90
2018-11-10T03:47:25.512Z,99.90
2018-11-10T03:52:28.259Z,99.90
2018-11-10T03:57:30.795Z,99.90
2018-11-10T04:02:33.324Z,99.90
2018-11-10T04:07:35.876Z,99.90
2018-11-10T04:12:38.528Z,99.90
2018-11-10T04:17:41.061Z,99.90
2018-11-10T04:22:43.622Z,99.90
2018-11-10T04:27:46.165Z,99.90
2018-11-10T04:32:48.819Z,99.90
2018-11-10T04:37:51.669Z,99.90
2018-11-10T04:42:54.229Z,99.90
2018-11-10T04:52:59.234Z,99.90
2018-11-10T04:58:01.756Z,99.90
2018-11-10T05:03:04.628Z,99.90
2018-11-10T05:08:08.702Z,99.90
2018-11-10T05:13:11.253Z,99.90
2018-11-10T05:18:13.808Z,99.90
2018-11-10T05:23:17.149Z,99.90
2018-11-10T05:28:21.553Z,99.90
2018-11-10T05:33:24.132Z,99.90
2018-11-10T05:38:26.668Z,99.90
2018-11-10T05:43:29.200Z,99.90
2018-11-10T05:48:31.777Z,99.90
2018-11-10T05:53:34.316Z,99.90
2018-11-10T05:58:37.844Z,99.90
2018-11-10T06:03:40.507Z,99.90
2018-11-10T06:08:43.056Z,99.90
2018-11-10T06:13:45.651Z,99.90
2018-11-10T06:18:48.414Z,99.90
2018-11-10T06:23:50.917Z,99.90
2018-11-10T06:28:53.600Z,99.90
2018-11-10T06:33:56.196Z,99.90
2018-11-10T06:38:58.752Z,99.90
2018-11-10T06:44:01.534Z,99.90
2018-11-10T06:49:04.812Z,99.90
2018-11-10T06:54:07.352Z,99.90
2018-11-10T06:59:10.032Z,99.90
2018-11-10T07:04:12.582Z,99.90
2018-11-10T07:09:15.139Z,99.90
2018-11-10T07:14:17.720Z,99.90
2018-11-10T07:19:20.444Z,99.90
2018-11-10T07:24:23.005Z,99.90
2018-11-10T07:29:25.544Z,99.90
2018-11-10T07:34:29.311Z,99.90
2018-11-10T07:39:31.936Z,99.90
2018-11-10T07:44:34.501Z,99.90
2018-11-10T07:49:37.273Z,99.90
2018-11-10T07:54:39.813Z,99.90
2018-11-10T07:59:42.493Z,99.90
2018-11-10T08:04:45.108Z,99.90
2018-11-10T08:09:47.702Z,99.90
2018-11-10T08:14:50.360Z,99.90
2018-11-10T08:19:52.910Z,99.90
2018-11-10T08:24:55.653Z,99.90
2018-11-10T08:29:58.192Z,99.90
2018-11-10T08:35:00.796Z,99.90
2018-11-10T08:40:03.472Z,99.90
2018-11-10T08:45:07.480Z,99.90
2018-11-10T08:50:11.361Z,99.90
2018-11-10T08:55:14.202Z,99.90
2018-11-10T09:00:16.827Z,99.90
2018-11-10T09:05:19.659Z,99.90
2018-11-10T09:10:23.191Z,99.90
2018-11-10T09:15:25.772Z,99.90
2018-11-10T09:20:28.365Z,99.90
2018-11-10T09:25:30.932Z,99.90
2018-11-10T09:30:33.500Z,99.90
2018-11-10T09:35:36.082Z,99.90
2018-11-10T09:40:38.648Z,99.90
2018-11-10T09:45:41.280Z,99.90
2018-11-10T09:50:43.906Z,99.90
2018-11-10T09:55:46.417Z,99.90
2018-11-10T10:00:49.031Z,99.90
2018-11-10T10:05:51.614Z,99.90
2018-11-10T10:10:54.170Z,99.70
2018-11-10T10:15:56.880Z,91.50
2018-11-10T10:20:59.398Z,85.50
2018-11-10T10:26:01.945Z,80.90
2018-11-10T10:31:04.679Z,77.80
2018-11-10T10:36:08.658Z,61.70
2018-11-10T10:41:11.223Z,59.30
2018-11-10T10:46:13.819Z,57.70
2018-11-10T10:51:16.423Z,61.80
2018-11-10T10:56:21.748Z,64.60
2018-11-10T11:01:30.227Z,66.70
2018-11-10T11:06:32.916Z,67.50
2018-11-10T11:11:35.475Z,69.30
2018-11-10T11:16:38.234Z,65.10
2018-11-10T11:21:40.841Z,67.70
2018-11-10T11:26:46.472Z,65.20
2018-11-10T11:31:49.041Z,65.80
2018-11-10T11:36:51.702Z,69.60
2018-11-10T11:41:54.371Z,68.00
2018-11-10T11:46:57.557Z,67.90
2018-11-10T11:52:02.389Z,68.90
2018-11-10T11:57:05.006Z,67.60
2018-11-10T12:02:09.339Z,59.70
2018-11-10T12:07:11.828Z,59.60
2018-11-10T12:12:15.574Z,59.30
2018-11-10T12:17:18.218Z,60.80
2018-11-10T12:22:20.846Z,63.20
2018-11-10T12:27:23.559Z,66.40
2018-11-10T12:32:26.154Z,64.20
2018-11-10T12:37:29.123Z,61.10
2018-11-10T12:42:31.724Z,59.70
2018-11-10T12:47:35.866Z,63.20
2018-11-10T12:52:45.384Z,67.20
2018-11-10T12:57:48.138Z,68.40
2018-11-10T13:02:54.067Z,69.20
2018-11-10T13:07:56.673Z,67.80
2018-11-10T13:12:59.323Z,63.20
2018-11-10T13:18:02.037Z,60.70
2018-11-10T13:23:04.744Z,55.40
2018-11-10T13:28:08.133Z,53.50
2018-11-10T13:33:10.693Z,54.00
2018-11-10T13:38:13.336Z,56.00
2018-11-10T13:43:15.872Z,54.30
2018-11-10T13:48:18.442Z,57.80
2018-11-10T13:53:21.053Z,60.60
2018-11-10T13:58:23.624Z,67.40
2018-11-10T14:03:26.245Z,69.80
2018-11-10T14:08:28.822Z,76.30
2018-11-10T14:13:31.401Z,74.10
2018-11-10T14:18:33.965Z,79.00
2018-11-10T14:23:36.570Z,83.70
2018-11-10T14:28:39.151Z,87.30
2018-11-10T14:33:42.612Z,93.00
2018-11-10T14:38:45.271Z,99.90
2018-11-10T14:43:47.846Z,99.90
2018-11-10T14:48:50.469Z,99.90
2018-11-10T14:53:53.053Z,99.90
2018-11-10T14:58:55.612Z,99.90
2018-11-10T15:03:58.784Z,99.90
2018-11-10T15:09:01.408Z,99.90
2018-11-10T15:14:06.510Z,99.90
2018-11-10T15:19:09.089Z,99.90
2018-11-10T15:24:11.758Z,99.90
2018-11-10T15:29:14.852Z,99.90
2018-11-10T15:34:17.494Z,99.90
2018-11-10T15:39:20.078Z,99.90
2018-11-10T15:44:23.153Z,99.90
2018-11-10T15:49:25.753Z,99.90
2018-11-10T15:54:28.486Z,99.90
2018-11-10T15:59:31.086Z,99.90
2018-11-10T16:04:33.640Z,99.90
2018-11-10T16:09:36.264Z,99.90
2018-11-10T16:14:38.961Z,99.90
2018-11-10T16:19:44.441Z,99.90
2018-11-10T16:24:47.071Z,99.90
2018-11-10T16:29:49.819Z,99.90
2018-11-10T16:34:52.517Z,99.90
2018-11-10T16:39:55.266Z,99.90
2018-11-10T16:44:57.991Z,99.90
2018-11-10T16:50:00.652Z,99.90
2018-11-10T16:55:03.433Z,99.90
2018-11-10T17:00:09.487Z,99.90
2018-11-10T17:05:12.342Z,99.90
2018-11-10T17:10:16.268Z,99.90
2018-11-10T17:15:19.001Z,99.90
2018-11-10T17:20:21.610Z,99.90
2018-11-10T17:25:24.200Z,99.90
2018-11-10T17:30:27.607Z,99.90
2018-11-10T17:35:30.159Z,99.90
2018-11-10T17:40:33.028Z,99.90
2018-11-10T17:45:36.318Z,99.90
2018-11-10T17:50:38.986Z,99.90
2018-11-10T17:55:42.360Z,99.90
2018-11-10T18:00:45.037Z,99.90
2018-11-10T18:05:47.627Z,99.90
2018-11-10T18:10:50.337Z,99.90
2018-11-10T18:15:52.934Z,99.90
2018-11-10T18:20:55.534Z,99.90
2018-11-10T18:25:58.119Z,99.90
2018-11-10T18:31:01.021Z,99.90
2018-11-10T18:36:03.622Z,99.90
2018-11-10T18:41:06.273Z,99.90
2018-11-10T18:46:08.913Z,99.90
2018-11-10T18:51:11.806Z,99.90
2018-11-10T18:56:14.741Z,99.90
2018-11-10T19:01:17.336Z,99.90
2018-11-10T19:06:20.836Z,99.90
2018-11-10T19:11:23.873Z,99.90
2018-11-10T19:16:26.469Z,99.90
2018-11-10T19:21:29.074Z,99.90
2018-11-10T19:26:31.658Z,99.90
2018-11-10T19:31:34.270Z,99.90
2018-11-10T19:41:39.795Z,99.90
2018-11-10T19:46:42.394Z,99.90
2018-11-10T19:51:45.080Z,99.90
2018-11-10T19:56:48.119Z,99.90
2018-11-10T20:01:51.227Z,99.90
2018-11-10T20:06:54.091Z,99.90
2018-11-10T20:11:56.711Z,99.90
2018-11-10T20:17:00.229Z,99.90
2018-11-10T20:22:03.844Z,99.90
2018-11-10T20:27:06.474Z,99.90
2018-11-10T20:32:09.204Z,99.90
2018-11-10T20:37:11.813Z,99.90
2018-11-10T20:42:15.228Z,99.90
2018-11-10T20:47:17.880Z,99.90
2018-11-10T20:52:20.491Z,99.90
2018-11-10T20:57:23.175Z,99.90
2018-11-10T21:02:26.022Z,99.90
2018-11-10T21:07:28.771Z,99.90
2018-11-10T21:12:31.374Z,99.90
2018-11-10T21:17:34.088Z,99.90
2018-11-10T21:22:36.810Z,99.90
2018-11-10T21:27:40.032Z,99.90
2018-11-10T21:32:43.060Z,99.90
2018-11-10T21:37:45.788Z,99.90
2018-11-10T21:42:48.458Z,99.90
2018-11-10T21:47:51.136Z,99.90
2018-11-10T21:52:53.964Z,99.90
2018-11-10T21:57:56.648Z,99.90
2018-11-10T22:02:59.269Z,99.90
2018-11-10T22:08:01.929Z,99.90
2018-11-10T22:13:04.948Z,99.90
2018-11-10T22:18:07.521Z,99.90
2018-11-10T22:23:10.234Z,99.90
2018-11-10T22:28:12.822Z,99.90
2018-11-10T22:33:15.392Z,99.90
2018-11-10T22:38:18.347Z,99.90
2018-11-10T22:43:20.952Z,99.90
2018-11-10T22:48:24.158Z,99.90
2018-11-10T22:53:26.747Z,99.90
2018-11-10T22:58:29.293Z,99.90
2018-11-10T23:03:31.972Z,99.90
2018-11-10T23:08:34.592Z,99.90
2018-11-10T23:13:37.153Z,99.90
2018-11-10T23:23:52.025Z,99.90
2018-11-10T23:28:54.569Z,99.90
2018-11-10T23:33:57.320Z,99.90
2018-11-10T23:39:00.007Z,99.90
2018-11-10T23:44:02.615Z,99.90
2018-11-10T23:49:06.005Z,99.90
2018-11-10T23:54:08.609Z,99.90
2018-11-10T23:59:11.152Z,99.90
